sensor_id;sensor_type;location;lat;lon;timestamp;pressure;altitude;pressure_sealevel;temperature;humidity
54540;BME280;40438;52.992;18.604;2023-01-10T00:01:17;100042.00;;;4.16;100.00
54540;BME280;40438;52.992;18.604;2023-01-10T00:03:42;100051.53;;;4.11;100.00
54540;BME280;40438;52.992;18.604;2023-01-10T00:06:08;100045.34;;;4.04;100.00
54540;BME280;40438;52.992;18.604;2023-01-10T00:08:34;100059.34;;;3.98;100.00
54540;BME280;40438;52.992;18.604;2023-01-10T00:10:59;100067.03;;;3.92;100.00
54540;BME280;40438;52.992;18.604;2023-01-10T00:13:25;100072.09;;;3.87;100.00
54540;BME280;40438;52.992;18.604;2023-01-10T00:15:52;100074.47;;;3.82;100.00
54540;BME280;40438;52.992;18.604;2023-01-10T00:18:19;100069.91;;;3.76;100.00
54540;BME280;40438;52.992;18.604;2023-01-10T00:20:46;100074.94;;;3.71;100.00
54540;BME280;40438;52.992;18.604;2023-01-10T00:23:12;100075.31;;;3.68;100.00
54540;BME280;40438;52.992;18.604;2023-01-10T00:25:38;100076.44;;;3.59;100.00
54540;BME280;40438;52.992;18.604;2023-01-10T00:28:04;100078.81;;;3.54;100.00
54540;BME280;40438;52.992;18.604;2023-01-10T00:30:30;100085.13;;;3.53;100.00
54540;BME280;40438;52.992;18.604;2023-01-10T00:32:56;100085.47;;;3.49;100.00
54540;BME280;40438;52.992;18.604;2023-01-10T00:35:23;100089.22;;;3.40;100.00
54540;BME280;40438;52.992;18.604;2023-01-10T00:37:49;100091.41;;;3.37;100.00
54540;BME280;40438;52.992;18.604;2023-01-10T00:40:15;100102.75;;;3.31;100.00
54540;BME280;40438;52.992;18.604;2023-01-10T00:42:41;100114.13;;;3.31;100.00
54540;BME280;40438;52.992;18.604;2023-01-10T00:45:07;100113.22;;;3.24;100.00
54540;BME280;40438;52.992;18.604;2023-01-10T00:47:33;100123.38;;;3.20;100.00
54540;BME280;40438;52.992;18.604;2023-01-10T00:49:59;100117.94;;;3.14;100.00
54540;BME280;40438;52.992;18.604;2023-01-10T00:52:26;100127.91;;;3.12;100.00
54540;BME280;40438;52.992;18.604;2023-01-10T00:54:52;100118.50;;;3.09;100.00
54540;BME280;40438;52.992;18.604;2023-01-10T00:57:17;100127.63;;;3.07;100.00
54540;BME280;40438;52.992;18.604;2023-01-10T00:59:43;100135.09;;;3.03;100.00
54540;BME280;40438;52.992;18.604;2023-01-10T01:02:09;100135.66;;;2.98;100.00
54540;BME280;40438;52.992;18.604;2023-01-10T01:04:35;100138.44;;;2.97;100.00
54540;BME280;40438;52.992;18.604;2023-01-10T01:07:00;100143.94;;;2.95;100.00
54540;BME280;40438;52.992;18.604;2023-01-10T01:09:28;100144.91;;;2.94;100.00
54540;BME280;40438;52.992;18.604;2023-01-10T01:11:54;100144.00;;;2.87;100.00
54540;BME280;40438;52.992;18.604;2023-01-10T01:14:20;100160.16;;;2.92;100.00
54540;BME280;40438;52.992;18.604;2023-01-10T01:16:45;100153.56;;;2.88;100.00
54540;BME280;40438;52.992;18.604;2023-01-10T01:19:11;100159.06;;;2.87;100.00
54540;BME280;40438;52.992;18.604;2023-01-10T01:21:37;100164.84;;;2.82;100.00
54540;BME280;40438;52.992;18.604;2023-01-10T01:24:03;100164.22;;;2.80;100.00
54540;BME280;40438;52.992;18.604;2023-01-10T01:26:30;100163.78;;;2.76;100.00
54540;BME280;40438;52.992;18.604;2023-01-10T01:28:56;100165.09;;;2.72;100.00
54540;BME280;40438;52.992;18.604;2023-01-10T01:31:21;100168.75;;;2.71;100.00
54540;BME280;40438;52.992;18.604;2023-01-10T01:33:47;100172.22;;;2.72;100.00
54540;BME280;40438;52.992;18.604;2023-01-10T01:36:13;100171.25;;;2.73;100.00
54540;BME280;40438;52.992;18.604;2023-01-10T01:38:39;100173.34;;;2.77;100.00
54540;BME280;40438;52.992;18.604;2023-01-10T01:41:06;100166.22;;;2.78;100.00
54540;BME280;40438;52.992;18.604;2023-01-10T01:43:57;100178.63;;;2.77;100.00
54540;BME280;40438;52.992;18.604;2023-01-10T01:46:23;100182.28;;;2.76;100.00
54540;BME280;40438;52.992;18.604;2023-01-10T01:48:49;100192.97;;;2.83;100.00
54540;BME280;40438;52.992;18.604;2023-01-10T01:51:17;100191.31;;;2.82;100.00
54540;BME280;40438;52.992;18.604;2023-01-10T01:53:48;100191.66;;;2.79;100.00
54540;BME280;40438;52.992;18.604;2023-01-10T01:56:17;100196.69;;;2.74;100.00
54540;BME280;40438;52.992;18.604;2023-01-10T01:58:48;100198.16;;;2.76;100.00
54540;BME280;40438;52.992;18.604;2023-01-10T02:01:18;100197.53;;;2.66;100.00
54540;BME280;40438;52.992;18.604;2023-01-10T02:03:47;100200.06;;;2.60;100.00
54540;BME280;40438;52.992;18.604;2023-01-10T02:06:14;100202.44;;;2.54;100.00
54540;BME280;40438;52.992;18.604;2023-01-10T02:08:44;100207.25;;;2.51;100.00
54540;BME280;40438;52.992;18.604;2023-01-10T02:11:12;100213.97;;;2.53;100.00
54540;BME280;40438;52.992;18.604;2023-01-10T02:13:39;100216.00;;;2.51;100.00
54540;BME280;40438;52.992;18.604;2023-01-10T02:16:06;100221.22;;;2.60;100.00
54540;BME280;40438;52.992;18.604;2023-01-10T02:18:34;100239.31;;;2.48;100.00
54540;BME280;40438;52.992;18.604;2023-01-10T02:21:18;100236.00;;;2.46;100.00
54540;BME280;40438;52.992;18.604;2023-01-10T02:24:09;100238.84;;;2.44;100.00
54540;BME280;40438;52.992;18.604;2023-01-10T02:27:05;100238.31;;;2.49;100.00
54540;BME280;40438;52.992;18.604;2023-01-10T02:30:11;100237.06;;;2.37;100.00
54540;BME280;40438;52.992;18.604;2023-01-10T02:32:47;100251.75;;;2.39;100.00
54540;BME280;40438;52.992;18.604;2023-01-10T02:35:26;100255.41;;;2.38;100.00
54540;BME280;40438;52.992;18.604;2023-01-10T02:37:59;100251.56;;;2.41;100.00
54540;BME280;40438;52.992;18.604;2023-01-10T02:40:33;100261.97;;;2.42;100.00
54540;BME280;40438;52.992;18.604;2023-01-10T02:43:07;100270.91;;;2.41;100.00
54540;BME280;40438;52.992;18.604;2023-01-10T02:45:38;100266.09;;;2.45;100.00
54540;BME280;40438;52.992;18.604;2023-01-10T02:48:07;100275.13;;;2.50;100.00
54540;BME280;40438;52.992;18.604;2023-01-10T02:50:46;100274.31;;;2.50;100.00
54540;BME280;40438;52.992;18.604;2023-01-10T02:53:15;100286.06;;;2.47;100.00
54540;BME280;40438;52.992;18.604;2023-01-10T02:56:02;100285.03;;;2.56;100.00
54540;BME280;40438;52.992;18.604;2023-01-10T02:58:45;100287.38;;;2.51;100.00
54540;BME280;40438;52.992;18.604;2023-01-10T03:01:21;100290.66;;;2.53;100.00
54540;BME280;40438;52.992;18.604;2023-01-10T03:04:01;100285.78;;;2.42;100.00
54540;BME280;40438;52.992;18.604;2023-01-10T03:06:33;100285.28;;;2.39;100.00
54540;BME280;40438;52.992;18.604;2023-01-10T03:09:06;100291.22;;;2.41;100.00
54540;BME280;40438;52.992;18.604;2023-01-10T03:11:36;100289.91;;;2.37;100.00
54540;BME280;40438;52.992;18.604;2023-01-10T03:14:06;100299.34;;;2.31;100.00
54540;BME280;40438;52.992;18.604;2023-01-10T03:16:34;100301.66;;;2.34;100.00
54540;BME280;40438;52.992;18.604;2023-01-10T03:19:07;100302.66;;;2.25;100.00
54540;BME280;40438;52.992;18.604;2023-01-10T03:21:35;100316.88;;;2.24;100.00
54540;BME280;40438;52.992;18.604;2023-01-10T03:24:06;100316.72;;;2.25;100.00
54540;BME280;40438;52.992;18.604;2023-01-10T03:26:41;100319.19;;;2.27;100.00
54540;BME280;40438;52.992;18.604;2023-01-10T03:29:11;100313.91;;;2.27;100.00
54540;BME280;40438;52.992;18.604;2023-01-10T03:31:43;100317.22;;;2.29;100.00
54540;BME280;40438;52.992;18.604;2023-01-10T03:34:11;100316.56;;;2.27;100.00
54540;BME280;40438;52.992;18.604;2023-01-10T03:36:40;100323.47;;;2.28;100.00
54540;BME280;40438;52.992;18.604;2023-01-10T03:39:12;100326.44;;;2.33;100.00
54540;BME280;40438;52.992;18.604;2023-01-10T03:41:47;100321.50;;;2.30;100.00
54540;BME280;40438;52.992;18.604;2023-01-10T03:44:19;100328.59;;;2.29;100.00
54540;BME280;40438;52.992;18.604;2023-01-10T03:46:50;100330.25;;;2.30;100.00
54540;BME280;40438;52.992;18.604;2023-01-10T03:49:21;100328.28;;;2.32;100.00
54540;BME280;40438;52.992;18.604;2023-01-10T03:51:48;100335.06;;;2.27;100.00
54540;BME280;40438;52.992;18.604;2023-01-10T03:54:15;100330.44;;;2.29;100.00
54540;BME280;40438;52.992;18.604;2023-01-10T03:56:45;100333.72;;;2.31;100.00
54540;BME280;40438;52.992;18.604;2023-01-10T03:59:11;100341.81;;;2.29;100.00
54540;BME280;40438;52.992;18.604;2023-01-10T04:01:37;100349.09;;;2.27;100.00
54540;BME280;40438;52.992;18.604;2023-01-10T04:04:03;100346.28;;;2.21;100.00
54540;BME280;40438;52.992;18.604;2023-01-10T04:06:30;100349.75;;;2.21;100.00
54540;BME280;40438;52.992;18.604;2023-01-10T04:08:55;100356.72;;;2.22;100.00
54540;BME280;40438;52.992;18.604;2023-01-10T04:11:21;100349.94;;;2.20;100.00
54540;BME280;40438;52.992;18.604;2023-01-10T04:13:47;100361.47;;;2.19;100.00
54540;BME280;40438;52.992;18.604;2023-01-10T04:16:13;100357.19;;;2.18;100.00
54540;BME280;40438;52.992;18.604;2023-01-10T04:18:38;100364.31;;;2.17;100.00
54540;BME280;40438;52.992;18.604;2023-01-10T04:21:05;100378.88;;;2.13;100.00
54540;BME280;40438;52.992;18.604;2023-01-10T04:23:32;100386.47;;;2.16;100.00
54540;BME280;40438;52.992;18.604;2023-01-10T04:25:57;100393.19;;;2.19;100.00
54540;BME280;40438;52.992;18.604;2023-01-10T04:28:23;100401.59;;;2.30;100.00
54540;BME280;40438;52.992;18.604;2023-01-10T04:30:49;100402.44;;;2.31;100.00
54540;BME280;40438;52.992;18.604;2023-01-10T04:33:15;100395.34;;;2.23;100.00
54540;BME280;40438;52.992;18.604;2023-01-10T04:35:46;100403.63;;;2.20;100.00
54540;BME280;40438;52.992;18.604;2023-01-10T04:38:12;100421.28;;;2.20;100.00
54540;BME280;40438;52.992;18.604;2023-01-10T04:40:39;100417.31;;;2.24;100.00
54540;BME280;40438;52.992;18.604;2023-01-10T04:43:05;100423.94;;;2.20;100.00
54540;BME280;40438;52.992;18.604;2023-01-10T04:45:30;100429.56;;;2.17;100.00
54540;BME280;40438;52.992;18.604;2023-01-10T04:47:56;100421.97;;;2.14;100.00
54540;BME280;40438;52.992;18.604;2023-01-10T04:50:22;100427.41;;;2.12;100.00
54540;BME280;40438;52.992;18.604;2023-01-10T04:52:48;100432.53;;;2.14;100.00
54540;BME280;40438;52.992;18.604;2023-01-10T04:55:14;100440.28;;;2.15;100.00
54540;BME280;40438;52.992;18.604;2023-01-10T04:57:41;100439.16;;;2.09;100.00
54540;BME280;40438;52.992;18.604;2023-01-10T05:00:08;100445.41;;;2.08;100.00
54540;BME280;40438;52.992;18.604;2023-01-10T05:02:34;100433.88;;;2.09;100.00
54540;BME280;40438;52.992;18.604;2023-01-10T05:05:00;100447.91;;;2.10;100.00
54540;BME280;40438;52.992;18.604;2023-01-10T05:07:25;100447.06;;;2.09;100.00
54540;BME280;40438;52.992;18.604;2023-01-10T05:09:51;100444.44;;;2.09;100.00
54540;BME280;40438;52.992;18.604;2023-01-10T05:12:17;100451.50;;;2.09;100.00
54540;BME280;40438;52.992;18.604;2023-01-10T05:14:44;100462.41;;;2.14;100.00
54540;BME280;40438;52.992;18.604;2023-01-10T05:17:10;100466.22;;;2.12;100.00
54540;BME280;40438;52.992;18.604;2023-01-10T05:19:36;100474.31;;;2.10;100.00
54540;BME280;40438;52.992;18.604;2023-01-10T05:22:01;100472.97;;;2.06;100.00
54540;BME280;40438;52.992;18.604;2023-01-10T05:24:27;100481.91;;;2.05;100.00
54540;BME280;40438;52.992;18.604;2023-01-10T05:26:53;100489.50;;;2.08;100.00
54540;BME280;40438;52.992;18.604;2023-01-10T05:29:18;100489.00;;;2.04;100.00
54540;BME280;40438;52.992;18.604;2023-01-10T05:31:46;100497.94;;;2.03;100.00
54540;BME280;40438;52.992;18.604;2023-01-10T05:34:11;100501.22;;;1.97;100.00
54540;BME280;40438;52.992;18.604;2023-01-10T05:36:37;100503.06;;;1.97;100.00
54540;BME280;40438;52.992;18.604;2023-01-10T05:39:03;100504.53;;;1.91;100.00
54540;BME280;40438;52.992;18.604;2023-01-10T05:41:29;100516.06;;;1.90;100.00
54540;BME280;40438;52.992;18.604;2023-01-10T05:43:54;100518.88;;;1.89;100.00
54540;BME280;40438;52.992;18.604;2023-01-10T05:46:20;100523.34;;;1.88;100.00
54540;BME280;40438;52.992;18.604;2023-01-10T05:48:47;100521.00;;;1.77;100.00
54540;BME280;40438;52.992;18.604;2023-01-10T05:51:13;100537.00;;;1.75;100.00
54540;BME280;40438;52.992;18.604;2023-01-10T05:53:39;100537.16;;;1.74;100.00
54540;BME280;40438;52.992;18.604;2023-01-10T05:56:05;100545.25;;;1.72;100.00
54540;BME280;40438;52.992;18.604;2023-01-10T05:58:31;100544.44;;;1.72;100.00
54540;BME280;40438;52.992;18.604;2023-01-10T06:00:57;100550.03;;;1.69;100.00
54540;BME280;40438;52.992;18.604;2023-01-10T06:03:23;100565.56;;;1.72;100.00
54540;BME280;40438;52.992;18.604;2023-01-10T06:05:50;100569.16;;;1.71;100.00
54540;BME280;40438;52.992;18.604;2023-01-10T06:08:16;100576.94;;;1.72;100.00
54540;BME280;40438;52.992;18.604;2023-01-10T06:10:42;100570.34;;;1.68;100.00
54540;BME280;40438;52.992;18.604;2023-01-10T06:13:08;100579.53;;;1.64;100.00
54540;BME280;40438;52.992;18.604;2023-01-10T06:15:35;100572.75;;;1.61;100.00
54540;BME280;40438;52.992;18.604;2023-01-10T06:18:01;100581.22;;;1.65;100.00
54540;BME280;40438;52.992;18.604;2023-01-10T06:20:27;100585.00;;;1.62;100.00
54540;BME280;40438;52.992;18.604;2023-01-10T06:22:54;100589.47;;;1.62;100.00
54540;BME280;40438;52.992;18.604;2023-01-10T06:25:20;100592.41;;;1.59;100.00
54540;BME280;40438;52.992;18.604;2023-01-10T06:27:46;100590.59;;;1.59;100.00
54540;BME280;40438;52.992;18.604;2023-01-10T06:30:12;100596.53;;;1.61;100.00
54540;BME280;40438;52.992;18.604;2023-01-10T06:32:38;100602.97;;;1.59;100.00
54540;BME280;40438;52.992;18.604;2023-01-10T06:35:05;100614.69;;;1.56;100.00
54540;BME280;40438;52.992;18.604;2023-01-10T06:37:31;100616.13;;;1.51;100.00
54540;BME280;40438;52.992;18.604;2023-01-10T06:39:58;100616.31;;;1.49;100.00
54540;BME280;40438;52.992;18.604;2023-01-10T06:42:24;100618.63;;;1.52;100.00
54540;BME280;40438;52.992;18.604;2023-01-10T06:44:50;100626.50;;;1.44;100.00
54540;BME280;40438;52.992;18.604;2023-01-10T06:47:15;100626.63;;;1.43;100.00
54540;BME280;40438;52.992;18.604;2023-01-10T06:49:41;100632.22;;;1.39;100.00
54540;BME280;40438;52.992;18.604;2023-01-10T06:52:07;100633.09;;;1.40;100.00
54540;BME280;40438;52.992;18.604;2023-01-10T06:54:33;100632.56;;;1.36;100.00
54540;BME280;40438;52.992;18.604;2023-01-10T06:57:00;100647.25;;;1.39;100.00
54540;BME280;40438;52.992;18.604;2023-01-10T06:59:26;100662.13;;;1.40;100.00
54540;BME280;40438;52.992;18.604;2023-01-10T07:01:51;100663.75;;;1.41;100.00
54540;BME280;40438;52.992;18.604;2023-01-10T07:04:17;100668.31;;;1.31;100.00
54540;BME280;40438;52.992;18.604;2023-01-10T07:06:43;100676.75;;;1.34;100.00
54540;BME280;40438;52.992;18.604;2023-01-10T07:09:09;100681.31;;;1.24;100.00
54540;BME280;40438;52.992;18.604;2023-01-10T07:11:34;100687.72;;;1.22;100.00
54540;BME280;40438;52.992;18.604;2023-01-10T07:14:02;100690.06;;;1.25;100.00
54540;BME280;40438;52.992;18.604;2023-01-10T07:16:28;100697.28;;;1.23;100.00
54540;BME280;40438;52.992;18.604;2023-01-10T07:18:53;100701.38;;;1.17;100.00
54540;BME280;40438;52.992;18.604;2023-01-10T07:21:19;100701.53;;;1.15;100.00
54540;BME280;40438;52.992;18.604;2023-01-10T07:23:46;100703.19;;;1.16;100.00
54540;BME280;40438;52.992;18.604;2023-01-10T07:26:12;100715.09;;;1.21;100.00
54540;BME280;40438;52.992;18.604;2023-01-10T07:28:38;100712.00;;;1.25;100.00
54540;BME280;40438;52.992;18.604;2023-01-10T07:31:05;100704.69;;;1.19;100.00
54540;BME280;40438;52.992;18.604;2023-01-10T07:33:31;100715.41;;;1.18;100.00
54540;BME280;40438;52.992;18.604;2023-01-10T07:35:58;100714.41;;;1.19;100.00
54540;BME280;40438;52.992;18.604;2023-01-10T07:38:24;100723.16;;;1.19;100.00
54540;BME280;40438;52.992;18.604;2023-01-10T07:40:50;100728.13;;;1.22;100.00
54540;BME280;40438;52.992;18.604;2023-01-10T07:43:16;100722.53;;;1.25;100.00
54540;BME280;40438;52.992;18.604;2023-01-10T07:45:42;100721.94;;;1.31;100.00
54540;BME280;40438;52.992;18.604;2023-01-10T07:48:09;100728.72;;;1.34;100.00
54540;BME280;40438;52.992;18.604;2023-01-10T07:50:35;100729.38;;;1.36;100.00
54540;BME280;40438;52.992;18.604;2023-01-10T07:53:03;100732.53;;;1.39;100.00
54540;BME280;40438;52.992;18.604;2023-01-10T07:55:29;100731.25;;;1.44;100.00
54540;BME280;40438;52.992;18.604;2023-01-10T07:57:56;100740.00;;;1.44;100.00
54540;BME280;40438;52.992;18.604;2023-01-10T08:00:22;100749.44;;;1.47;100.00
54540;BME280;40438;52.992;18.604;2023-01-10T08:02:52;100741.34;;;1.48;100.00
54540;BME280;40438;52.992;18.604;2023-01-10T08:05:19;100743.66;;;1.51;100.00
54540;BME280;40438;52.992;18.604;2023-01-10T08:07:45;100746.00;;;1.54;100.00
54540;BME280;40438;52.992;18.604;2023-01-10T08:10:11;100747.31;;;1.50;100.00
54540;BME280;40438;52.992;18.604;2023-01-10T08:12:37;100751.75;;;1.50;100.00
54540;BME280;40438;52.992;18.604;2023-01-10T08:15:03;100760.19;;;1.53;100.00
54540;BME280;40438;52.992;18.604;2023-01-10T08:17:31;100766.59;;;1.51;100.00
54540;BME280;40438;52.992;18.604;2023-01-10T08:19:57;100768.56;;;1.49;100.00
54540;BME280;40438;52.992;18.604;2023-01-10T08:22:24;100773.22;;;1.55;100.00
54540;BME280;40438;52.992;18.604;2023-01-10T08:24:50;100779.50;;;1.54;100.00
54540;BME280;40438;52.992;18.604;2023-01-10T08:27:16;100793.59;;;1.62;100.00
54540;BME280;40438;52.992;18.604;2023-01-10T08:29:42;100786.59;;;1.53;100.00
54540;BME280;40438;52.992;18.604;2023-01-10T08:32:08;100789.03;;;1.47;100.00
54540;BME280;40438;52.992;18.604;2023-01-10T08:34:34;100800.09;;;1.50;100.00
54540;BME280;40438;52.992;18.604;2023-01-10T08:36:59;100801.13;;;1.57;100.00
54540;BME280;40438;52.992;18.604;2023-01-10T08:39:27;100799.19;;;1.59;100.00
54540;BME280;40438;52.992;18.604;2023-01-10T08:41:53;100804.47;;;1.59;100.00
54540;BME280;40438;52.992;18.604;2023-01-10T08:44:19;100806.72;;;1.54;100.00
54540;BME280;40438;52.992;18.604;2023-01-10T08:46:45;100808.03;;;1.50;100.00
54540;BME280;40438;52.992;18.604;2023-01-10T08:49:11;100815.47;;;1.55;100.00
54540;BME280;40438;52.992;18.604;2023-01-10T08:51:36;100816.84;;;1.59;100.00
54540;BME280;40438;52.992;18.604;2023-01-10T08:54:03;100818.31;;;1.61;100.00
54540;BME280;40438;52.992;18.604;2023-01-10T08:56:30;100829.56;;;1.63;100.00
54540;BME280;40438;52.992;18.604;2023-01-10T08:58:56;100828.13;;;1.69;100.00
54540;BME280;40438;52.992;18.604;2023-01-10T09:01:21;100824.34;;;1.72;100.00
54540;BME280;40438;52.992;18.604;2023-01-10T09:03:48;100823.56;;;1.79;100.00
54540;BME280;40438;52.992;18.604;2023-01-10T09:06:14;100837.97;;;1.85;100.00
54540;BME280;40438;52.992;18.604;2023-01-10T09:08:40;100835.03;;;1.88;100.00
54540;BME280;40438;52.992;18.604;2023-01-10T09:11:05;100851.41;;;1.92;100.00
54540;BME280;40438;52.992;18.604;2023-01-10T09:13:33;100850.25;;;1.94;100.00
54540;BME280;40438;52.992;18.604;2023-01-10T09:15:59;100854.94;;;2.00;100.00
54540;BME280;40438;52.992;18.604;2023-01-10T09:18:25;100854.63;;;2.03;100.00
54540;BME280;40438;52.992;18.604;2023-01-10T09:20:51;100857.47;;;2.10;100.00
54540;BME280;40438;52.992;18.604;2023-01-10T09:23:19;100859.59;;;2.06;100.00
54540;BME280;40438;52.992;18.604;2023-01-10T09:25:45;100859.91;;;2.03;100.00
54540;BME280;40438;52.992;18.604;2023-01-10T09:28:12;100859.59;;;2.06;100.00
54540;BME280;40438;52.992;18.604;2023-01-10T09:30:39;100856.78;;;2.08;100.00
54540;BME280;40438;52.992;18.604;2023-01-10T09:33:06;100855.53;;;2.20;100.00
54540;BME280;40438;52.992;18.604;2023-01-10T09:35:34;100862.94;;;2.17;100.00
54540;BME280;40438;52.992;18.604;2023-01-10T09:38:01;100866.56;;;2.16;100.00
54540;BME280;40438;52.992;18.604;2023-01-10T09:40:35;100870.56;;;2.20;100.00
54540;BME280;40438;52.992;18.604;2023-01-10T09:43:09;100867.25;;;2.18;100.00
54540;BME280;40438;52.992;18.604;2023-01-10T09:45:47;100863.47;;;2.20;100.00
54540;BME280;40438;52.992;18.604;2023-01-10T09:48:20;100861.81;;;2.19;100.00
54540;BME280;40438;52.992;18.604;2023-01-10T09:51:01;100865.28;;;2.20;100.00
54540;BME280;40438;52.992;18.604;2023-01-10T09:53:33;100859.31;;;2.18;100.00
54540;BME280;40438;52.992;18.604;2023-01-10T09:56:01;100860.19;;;2.26;100.00
54540;BME280;40438;52.992;18.604;2023-01-10T09:58:29;100871.22;;;2.22;100.00
54540;BME280;40438;52.992;18.604;2023-01-10T10:00:59;100875.38;;;2.24;100.00
54540;BME280;40438;52.992;18.604;2023-01-10T10:03:29;100865.38;;;2.36;100.00
54540;BME280;40438;52.992;18.604;2023-01-10T10:05:57;100862.84;;;2.26;100.00
54540;BME280;40438;52.992;18.604;2023-01-10T10:08:23;100866.00;;;2.30;100.00
54540;BME280;40438;52.992;18.604;2023-01-10T10:11:01;100864.19;;;2.30;100.00
54540;BME280;40438;52.992;18.604;2023-01-10T10:13:40;100869.16;;;2.33;100.00
54540;BME280;40438;52.992;18.604;2023-01-10T10:16:17;100869.84;;;2.36;100.00
54540;BME280;40438;52.992;18.604;2023-01-10T10:18:54;100869.00;;;2.35;100.00
54540;BME280;40438;52.992;18.604;2023-01-10T10:21:27;100867.19;;;2.36;100.00
54540;BME280;40438;52.992;18.604;2023-01-10T10:24:06;100873.50;;;2.43;100.00
54540;BME280;40438;52.992;18.604;2023-01-10T10:26:43;100883.28;;;2.50;100.00
54540;BME280;40438;52.992;18.604;2023-01-10T10:29:40;100878.28;;;2.47;100.00
54540;BME280;40438;52.992;18.604;2023-01-10T10:32:42;100888.56;;;2.50;100.00
54540;BME280;40438;52.992;18.604;2023-01-10T10:35:13;100881.31;;;2.52;100.00
54540;BME280;40438;52.992;18.604;2023-01-10T10:37:42;100878.84;;;2.51;100.00
54540;BME280;40438;52.992;18.604;2023-01-10T10:40:17;100881.00;;;2.55;100.00
54540;BME280;40438;52.992;18.604;2023-01-10T10:42:47;100880.38;;;2.62;100.00
54540;BME280;40438;52.992;18.604;2023-01-10T10:45:16;100887.16;;;2.64;100.00
54540;BME280;40438;52.992;18.604;2023-01-10T10:47:49;100887.66;;;2.68;100.00
54540;BME280;40438;52.992;18.604;2023-01-10T10:50:22;100884.38;;;2.74;100.00
54540;BME280;40438;52.992;18.604;2023-01-10T10:52:50;100884.88;;;2.77;100.00
54540;BME280;40438;52.992;18.604;2023-01-10T10:55:17;100889.03;;;2.80;100.00
54540;BME280;40438;52.992;18.604;2023-01-10T10:57:45;100885.06;;;2.84;100.00
54540;BME280;40438;52.992;18.604;2023-01-10T11:00:16;100906.09;;;2.86;100.00
54540;BME280;40438;52.992;18.604;2023-01-10T11:02:45;100900.31;;;2.90;100.00
54540;BME280;40438;52.992;18.604;2023-01-10T11:05:16;100902.81;;;2.92;100.00
54540;BME280;40438;52.992;18.604;2023-01-10T11:07:44;100904.97;;;2.96;100.00
54540;BME280;40438;52.992;18.604;2023-01-10T11:10:14;100900.19;;;3.00;100.00
54540;BME280;40438;52.992;18.604;2023-01-10T11:12:45;100909.94;;;2.99;100.00
54540;BME280;40438;52.992;18.604;2023-01-10T11:15:37;100909.63;;;3.02;100.00
54540;BME280;40438;52.992;18.604;2023-01-10T11:18:05;100903.38;;;3.12;100.00
54540;BME280;40438;52.992;18.604;2023-01-10T11:20:31;100905.88;;;3.21;100.00
54540;BME280;40438;52.992;18.604;2023-01-10T11:22:58;100906.69;;;3.22;100.00
54540;BME280;40438;52.992;18.604;2023-01-10T11:25:24;100910.66;;;3.26;100.00
54540;BME280;40438;52.992;18.604;2023-01-10T11:27:52;100911.66;;;3.25;100.00
54540;BME280;40438;52.992;18.604;2023-01-10T11:30:21;100912.19;;;3.37;100.00
54540;BME280;40438;52.992;18.604;2023-01-10T11:32:51;100916.13;;;3.33;100.00
54540;BME280;40438;52.992;18.604;2023-01-10T11:35:20;100926.72;;;3.33;100.00
54540;BME280;40438;52.992;18.604;2023-01-10T11:37:58;100928.91;;;3.37;100.00
54540;BME280;40438;52.992;18.604;2023-01-10T11:40:25;100929.91;;;3.44;100.00
54540;BME280;40438;52.992;18.604;2023-01-10T11:42:52;100936.53;;;3.48;100.00
54540;BME280;40438;52.992;18.604;2023-01-10T11:45:26;100938.06;;;3.59;100.00
54540;BME280;40438;52.992;18.604;2023-01-10T11:47:55;100938.56;;;3.63;100.00
54540;BME280;40438;52.992;18.604;2023-01-10T11:50:25;100944.19;;;3.76;100.00
54540;BME280;40438;52.992;18.604;2023-01-10T11:52:52;100946.50;;;3.79;100.00
54540;BME280;40438;52.992;18.604;2023-01-10T11:55:20;100945.00;;;3.93;100.00
54540;BME280;40438;52.992;18.604;2023-01-10T11:57:55;100945.69;;;3.95;100.00
54540;BME280;40438;52.992;18.604;2023-01-10T12:00:30;100949.31;;;4.02;100.00
54540;BME280;40438;52.992;18.604;2023-01-10T12:02:58;100960.94;;;4.01;100.00
54540;BME280;40438;52.992;18.604;2023-01-10T12:05:24;100961.41;;;4.05;100.00
54540;BME280;40438;52.992;18.604;2023-01-10T12:07:53;100957.78;;;4.06;100.00
54540;BME280;40438;52.992;18.604;2023-01-10T12:10:20;100956.78;;;4.07;100.00
54540;BME280;40438;52.992;18.604;2023-01-10T12:12:52;100956.47;;;4.10;100.00
54540;BME280;40438;52.992;18.604;2023-01-10T12:15:21;100960.75;;;4.11;100.00
54540;BME280;40438;52.992;18.604;2023-01-10T12:17:47;100957.78;;;4.14;100.00
54540;BME280;40438;52.992;18.604;2023-01-10T12:20:15;100964.56;;;4.16;100.00
54540;BME280;40438;52.992;18.604;2023-01-10T12:22:43;100967.03;;;4.18;100.00
54540;BME280;40438;52.992;18.604;2023-01-10T12:25:17;100965.88;;;4.21;100.00
54540;BME280;40438;52.992;18.604;2023-01-10T12:27:44;100971.69;;;4.24;100.00
54540;BME280;40438;52.992;18.604;2023-01-10T12:30:13;100970.38;;;4.28;100.00
54540;BME280;40438;52.992;18.604;2023-01-10T12:32:43;100966.38;;;4.24;100.00
54540;BME280;40438;52.992;18.604;2023-01-10T12:35:14;100972.69;;;4.23;100.00
54540;BME280;40438;52.992;18.604;2023-01-10T12:37:46;100986.63;;;4.25;100.00
54540;BME280;40438;52.992;18.604;2023-01-10T12:40:16;100988.41;;;4.25;100.00
54540;BME280;40438;52.992;18.604;2023-01-10T12:42:49;100987.25;;;4.27;100.00
54540;BME280;40438;52.992;18.604;2023-01-10T12:45:22;100998.06;;;4.26;100.00
54540;BME280;40438;52.992;18.604;2023-01-10T12:47:56;100990.41;;;4.31;100.00